sensor_id;sensor_type;location;lat;lon;timestamp;pressure;altitude;pressure_sealevel;temperature;humidity
22206;BME280;11272;50.104;8.754;2022-12-18T00:00:47;102103.44;;;-6.11;78.99
22206;BME280;11272;50.104;8.754;2022-12-18T00:03:14;102102.66;;;-6.10;79.22
22206;BME280;11272;50.104;8.754;2022-12-18T00:05:51;102097.50;;;-6.10;79.15
22206;BME280;11272;50.104;8.754;2022-12-18T00:08:17;102098.94;;;-6.13;78.64
22206;BME280;11272;50.104;8.754;2022-12-18T00:10:43;102097.06;;;-6.16;78.77
22206;BME280;11272;50.104;8.754;2022-12-18T00:13:10;102100.41;;;-6.17;78.70
22206;BME280;11272;50.104;8.754;2022-12-18T00:15:37;102093.31;;;-6.19;78.99
22206;BME280;11272;50.104;8.754;2022-12-18T00:18:03;102096.94;;;-6.17;78.79
22206;BME280;11272;50.104;8.754;2022-12-18T00:20:29;102096.03;;;-6.18;79.16
22206;BME280;11272;50.104;8.754;2022-12-18T00:22:55;102098.75;;;-6.16;79.19
22206;BME280;11272;50.104;8.754;2022-12-18T00:25:21;102096.28;;;-6.15;79.64
22206;BME280;11272;50.104;8.754;2022-12-18T00:27:47;102102.22;;;-6.16;79.29
22206;BME280;11272;50.104;8.754;2022-12-18T00:30:13;102103.00;;;-6.17;78.87
22206;BME280;11272;50.104;8.754;2022-12-18T00:32:40;102102.09;;;-6.17;79.32
22206;BME280;11272;50.104;8.754;2022-12-18T00:35:06;102100.31;;;-6.18;79.24
22206;BME280;11272;50.104;8.754;2022-12-18T00:37:33;102101.97;;;-6.19;78.94
22206;BME280;11272;50.104;8.754;2022-12-18T00:39:59;102101.97;;;-6.19;79.13
22206;BME280;11272;50.104;8.754;2022-12-18T00:42:25;102097.50;;;-6.21;78.99
22206;BME280;11272;50.104;8.754;2022-12-18T00:45:10;102095.72;;;-6.22;78.78
22206;BME280;11272;50.104;8.754;2022-12-18T00:47:36;102089.63;;;-6.23;79.18
22206;BME280;11272;50.104;8.754;2022-12-18T00:50:02;102093.25;;;-6.21;79.64
22206;BME280;11272;50.104;8.754;2022-12-18T00:52:28;102094.34;;;-6.17;79.30
22206;BME280;11272;50.104;8.754;2022-12-18T00:54:54;102093.44;;;-6.18;79.67
22206;BME280;11272;50.104;8.754;2022-12-18T00:57:20;102100.53;;;-6.15;79.21
22206;BME280;11272;50.104;8.754;2022-12-18T00:59:45;102100.63;;;-6.14;79.66
22206;BME280;11272;50.104;8.754;2022-12-18T01:02:11;102094.56;;;-6.14;79.20
22206;BME280;11272;50.104;8.754;2022-12-18T01:04:36;102105.13;;;-6.11;79.69
22206;BME280;11272;50.104;8.754;2022-12-18T01:07:02;102107.59;;;-6.13;79.31
22206;BME280;11272;50.104;8.754;2022-12-18T01:09:29;102106.69;;;-6.13;79.60
22206;BME280;11272;50.104;8.754;2022-12-18T01:11:54;102102.44;;;-6.13;79.32
22206;BME280;11272;50.104;8.754;2022-12-18T01:14:20;102111.09;;;-6.12;79.25
22206;BME280;11272;50.104;8.754;2022-12-18T01:16:46;102117.03;;;-6.13;79.75
22206;BME280;11272;50.104;8.754;2022-12-18T01:19:11;102110.97;;;-6.14;79.61
22206;BME280;11272;50.104;8.754;2022-12-18T01:21:37;102109.19;;;-6.15;79.56
22206;BME280;11272;50.104;8.754;2022-12-18T01:24:03;102107.41;;;-6.16;79.45
22206;BME280;11272;50.104;8.754;2022-12-18T01:26:29;102118.63;;;-6.15;79.94
22206;BME280;11272;50.104;8.754;2022-12-18T01:28:55;102126.38;;;-6.15;79.38
22206;BME280;11272;50.104;8.754;2022-12-18T01:31:28;102119.28;;;-6.18;79.41
22206;BME280;11272;50.104;8.754;2022-12-18T01:33:54;102123.47;;;-6.20;79.62
22206;BME280;11272;50.104;8.754;2022-12-18T01:36:26;102127.75;;;-6.20;79.55
22206;BME280;11272;50.104;8.754;2022-12-18T01:38:53;102130.31;;;-6.20;79.47
22206;BME280;11272;50.104;8.754;2022-12-18T01:41:26;102129.41;;;-6.21;79.61
22206;BME280;11272;50.104;8.754;2022-12-18T01:43:57;102141.19;;;-6.24;79.42
22206;BME280;11272;50.104;8.754;2022-12-18T01:46:23;102147.19;;;-6.25;79.49
22206;BME280;11272;50.104;8.754;2022-12-18T01:48:56;102137.38;;;-6.29;79.48
22206;BME280;11272;50.104;8.754;2022-12-18T01:51:23;102131.88;;;-6.34;79.30
22206;BME280;11272;50.104;8.754;2022-12-18T01:53:49;102129.75;;;-6.40;79.04
22206;BME280;11272;50.104;8.754;2022-12-18T01:56:17;102130.31;;;-6.44;79.22
22206;BME280;11272;50.104;8.754;2022-12-18T01:59:00;102123.91;;;-6.49;79.20
22206;BME280;11272;50.104;8.754;2022-12-18T02:01:29;102136.63;;;-6.52;79.12
22206;BME280;11272;50.104;8.754;2022-12-18T02:04:21;102140.50;;;-6.57;78.98
22206;BME280;11272;50.104;8.754;2022-12-18T02:06:42;102141.75;;;-6.63;78.78
22206;BME280;11272;50.104;8.754;2022-12-18T02:09:13;102133.56;;;-6.69;78.89
22206;BME280;11272;50.104;8.754;2022-12-18T02:11:53;102122.88;;;-6.74;79.00
22206;BME280;11272;50.104;8.754;2022-12-18T02:14:38;102114.81;;;-6.78;78.96
22206;BME280;11272;50.104;8.754;2022-12-18T02:17:20;102119.50;;;-6.85;78.78
22206;BME280;11272;50.104;8.754;2022-12-18T02:27:33;102124.63;;;-6.96;78.89
22206;BME280;11272;50.104;8.754;2022-12-18T02:30:02;102121.94;;;-6.98;79.50
22206;BME280;11272;50.104;8.754;2022-12-18T02:32:34;102122.84;;;-6.97;79.44
22206;BME280;11272;50.104;8.754;2022-12-18T02:35:04;102108.91;;;-6.99;79.08
22206;BME280;11272;50.104;8.754;2022-12-18T02:37:32;102099.47;;;-6.99;79.57
22206;BME280;11272;50.104;8.754;2022-12-18T02:40:03;102101.06;;;-7.01;79.26
22206;BME280;11272;50.104;8.754;2022-12-18T02:42:32;102103.53;;;-7.02;79.19
22206;BME280;11272;50.104;8.754;2022-12-18T02:44:58;102103.53;;;-7.02;79.39
22206;BME280;11272;50.104;8.754;2022-12-18T02:47:30;102115.66;;;-7.01;79.16
22206;BME280;11272;50.104;8.754;2022-12-18T03:00:37;102111.81;;;-7.06;79.63
22206;BME280;11272;50.104;8.754;2022-12-18T03:03:20;102115.06;;;-7.09;79.39
22206;BME280;11272;50.104;8.754;2022-12-18T03:05:57;102114.06;;;-7.11;79.59
22206;BME280;11272;50.104;8.754;2022-12-18T03:08:31;102111.47;;;-7.11;79.50
22206;BME280;11272;50.104;8.754;2022-12-18T03:11:09;102119.88;;;-7.13;79.42
22206;BME280;11272;50.104;8.754;2022-12-18T03:13:59;102130.88;;;-7.16;79.50
22206;BME280;11272;50.104;8.754;2022-12-18T03:16:28;102136.56;;;-7.20;78.98
22206;BME280;11272;50.104;8.754;2022-12-18T03:19:01;102122.75;;;-7.20;79.48
22206;BME280;11272;50.104;8.754;2022-12-18T03:21:41;102109.75;;;-7.22;79.20
22206;BME280;11272;50.104;8.754;2022-12-18T03:24:09;102114.94;;;-7.22;79.55
22206;BME280;11272;50.104;8.754;2022-12-18T03:26:41;102111.19;;;-7.26;79.29
22206;BME280;11272;50.104;8.754;2022-12-18T03:29:12;102110.19;;;-7.28;79.12
22206;BME280;11272;50.104;8.754;2022-12-18T03:31:45;102109.28;;;-7.28;79.00
22206;BME280;11272;50.104;8.754;2022-12-18T03:34:15;102108.25;;;-7.30;79.37
22206;BME280;11272;50.104;8.754;2022-12-18T03:36:45;102114.09;;;-7.33;79.09
22206;BME280;11272;50.104;8.754;2022-12-18T03:39:13;102111.41;;;-7.34;79.54
22206;BME280;11272;50.104;8.754;2022-12-18T03:41:52;102107.91;;;-7.35;79.44
22206;BME280;11272;50.104;8.754;2022-12-18T03:44:45;102110.38;;;-7.36;79.71
22206;BME280;11272;50.104;8.754;2022-12-18T03:47:16;102114.53;;;-7.38;79.38
22206;BME280;11272;50.104;8.754;2022-12-18T03:52:57;102114.63;;;-7.37;79.30
22206;BME280;11272;50.104;8.754;2022-12-18T03:55:24;102114.53;;;-7.38;79.48
22206;BME280;11272;50.104;8.754;2022-12-18T03:57:58;102112.03;;;-7.37;79.75
22206;BME280;11272;50.104;8.754;2022-12-18T04:00:29;102105.00;;;-7.39;79.89
22206;BME280;11272;50.104;8.754;2022-12-18T04:03:04;102110.16;;;-7.39;79.54
22206;BME280;11272;50.104;8.754;2022-12-18T04:05:38;102103.19;;;-7.40;79.36
22206;BME280;11272;50.104;8.754;2022-12-18T04:08:08;102108.22;;;-7.42;79.42
22206;BME280;11272;50.104;8.754;2022-12-18T04:10:38;102109.88;;;-7.42;79.11
22206;BME280;11272;50.104;8.754;2022-12-18T04:13:03;102113.03;;;-7.46;79.43
22206;BME280;11272;50.104;8.754;2022-12-18T04:15:29;102113.78;;;-7.47;79.29
22206;BME280;11272;50.104;8.754;2022-12-18T04:17:58;102111.00;;;-7.50;79.82
22206;BME280;11272;50.104;8.754;2022-12-18T04:20:31;102117.69;;;-7.52;79.43
22206;BME280;11272;50.104;8.754;2022-12-18T04:22:58;102114.13;;;-7.54;79.75
22206;BME280;11272;50.104;8.754;2022-12-18T04:25:23;102102.22;;;-7.52;79.62
22206;BME280;11272;50.104;8.754;2022-12-18T04:27:59;102107.38;;;-7.52;79.59
22206;BME280;11272;50.104;8.754;2022-12-18T04:30:25;102117.69;;;-7.52;79.37
22206;BME280;11272;50.104;8.754;2022-12-18T04:32:51;102116.72;;;-7.54;79.46
22206;BME280;11272;50.104;8.754;2022-12-18T04:35:17;102109.88;;;-7.54;79.82
22206;BME280;11272;50.104;8.754;2022-12-18T04:37:44;102107.28;;;-7.54;79.75
22206;BME280;11272;50.104;8.754;2022-12-18T04:40:10;102106.38;;;-7.54;79.78
22206;BME280;11272;50.104;8.754;2022-12-18T04:42:41;102111.41;;;-7.56;79.57
22206;BME280;11272;50.104;8.754;2022-12-18T04:45:07;102110.50;;;-7.56;79.72
22206;BME280;11272;50.104;8.754;2022-12-18T04:47:33;102098.41;;;-7.57;79.48
22206;BME280;11272;50.104;8.754;2022-12-18T04:49:59;102102.56;;;-7.59;79.33
22206;BME280;11272;50.104;8.754;2022-12-18T04:52:24;102102.44;;;-7.61;79.64
22206;BME280;11272;50.104;8.754;2022-12-18T04:54:50;102091.22;;;-7.61;79.68
22206;BME280;11272;50.104;8.754;2022-12-18T04:57:15;102099.72;;;-7.62;79.33
22206;BME280;11272;50.104;8.754;2022-12-18T04:59:44;102102.97;;;-7.65;79.59
22206;BME280;11272;50.104;8.754;2022-12-18T05:02:10;102100.28;;;-7.67;79.33
22206;BME280;11272;50.104;8.754;2022-12-18T05:04:36;102093.31;;;-7.68;79.59
22206;BME280;11272;50.104;8.754;2022-12-18T05:07:01;102096.56;;;-7.70;79.77
22206;BME280;11272;50.104;8.754;2022-12-18T05:09:27;102099.91;;;-7.71;79.78
22206;BME280;11272;50.104;8.754;2022-12-18T05:11:53;102106.63;;;-7.73;79.59
22206;BME280;11272;50.104;8.754;2022-12-18T05:14:19;102107.41;;;-7.74;79.35
22206;BME280;11272;50.104;8.754;2022-12-18T05:16:44;102117.72;;;-7.74;79.91
22206;BME280;11272;50.104;8.754;2022-12-18T05:19:10;102130.50;;;-7.76;79.84
22206;BME280;11272;50.104;8.754;2022-12-18T05:21:36;102126.13;;;-7.77;80.07
22206;BME280;11272;50.104;8.754;2022-12-18T05:24:02;102120.97;;;-7.77;79.73
22206;BME280;11272;50.104;8.754;2022-12-18T05:26:27;102120.84;;;-7.78;79.92
22206;BME280;11272;50.104;8.754;2022-12-18T05:28:56;102129.47;;;-7.78;79.65
22206;BME280;11272;50.104;8.754;2022-12-18T05:31:22;102128.56;;;-7.78;79.66
22206;BME280;11272;50.104;8.754;2022-12-18T05:33:49;102122.41;;;-7.80;79.75
22206;BME280;11272;50.104;8.754;2022-12-18T05:36:15;102128.44;;;-7.80;79.43
22206;BME280;11272;50.104;8.754;2022-12-18T05:38:40;102125.00;;;-7.80;79.77
22206;BME280;11272;50.104;8.754;2022-12-18T05:41:07;102119.84;;;-7.80;79.45
22206;BME280;11272;50.104;8.754;2022-12-18T05:43:34;102119.03;;;-7.79;80.06
22206;BME280;11272;50.104;8.754;2022-12-18T05:46:05;102115.53;;;-7.80;79.86
22206;BME280;11272;50.104;8.754;2022-12-18T05:48:31;102111.41;;;-7.78;80.20
22206;BME280;11272;50.104;8.754;2022-12-18T05:51:07;102107.28;;;-7.76;80.04
22206;BME280;11272;50.104;8.754;2022-12-18T05:53:33;102100.34;;;-7.77;79.90
22206;BME280;11272;50.104;8.754;2022-12-18T05:56:03;102106.25;;;-7.78;80.08
22206;BME280;11272;50.104;8.754;2022-12-18T05:58:30;102113.88;;;-7.79;79.59
22206;BME280;11272;50.104;8.754;2022-12-18T06:00:56;102115.53;;;-7.80;79.81
22206;BME280;11272;50.104;8.754;2022-12-18T06:03:22;102111.19;;;-7.81;79.87
22206;BME280;11272;50.104;8.754;2022-12-18T06:05:48;102111.19;;;-7.81;79.93
22206;BME280;11272;50.104;8.754;2022-12-18T06:08:14;102111.06;;;-7.82;79.62
22206;BME280;11272;50.104;8.754;2022-12-18T06:10:40;102116.22;;;-7.82;79.44
22206;BME280;11272;50.104;8.754;2022-12-18T06:13:06;102125.41;;;-7.86;80.07
22206;BME280;11272;50.104;8.754;2022-12-18T06:15:33;102128.75;;;-7.87;79.83
22206;BME280;11272;50.104;8.754;2022-12-18T06:18:01;102135.44;;;-7.89;79.92
22206;BME280;11272;50.104;8.754;2022-12-18T06:20:26;102127.59;;;-7.90;79.75
22206;BME280;11272;50.104;8.754;2022-12-18T06:22:52;102138.78;;;-7.90;79.72
22206;BME280;11272;50.104;8.754;2022-12-18T06:25:18;102137.03;;;-7.91;80.04
22206;BME280;11272;50.104;8.754;2022-12-18T06:27:43;102136.22;;;-7.90;80.26
22206;BME280;11272;50.104;8.754;2022-12-18T06:30:09;102133.00;;;-7.87;80.29
22206;BME280;11272;50.104;8.754;2022-12-18T06:32:35;102137.25;;;-7.88;80.36
22206;BME280;11272;50.104;8.754;2022-12-18T06:35:01;102142.41;;;-7.88;80.04
22206;BME280;11272;50.104;8.754;2022-12-18T06:37:27;102143.94;;;-7.90;80.26
22206;BME280;11272;50.104;8.754;2022-12-18T06:39:53;102146.44;;;-7.91;79.97
22206;BME280;11272;50.104;8.754;2022-12-18T06:42:23;102154.03;;;-7.93;80.12
22206;BME280;11272;50.104;8.754;2022-12-18T06:44:50;102158.41;;;-7.92;79.74
22206;BME280;11272;50.104;8.754;2022-12-18T06:47:15;102160.09;;;-7.92;80.11
22206;BME280;11272;50.104;8.754;2022-12-18T06:49:41;102156.59;;;-7.93;80.00
22206;BME280;11272;50.104;8.754;2022-12-18T06:52:06;102159.97;;;-7.94;80.16
22206;BME280;11272;50.104;8.754;2022-12-18T06:54:32;102148.88;;;-7.93;79.99
22206;BME280;11272;50.104;8.754;2022-12-18T06:56:57;102154.81;;;-7.94;79.89
22206;BME280;11272;50.104;8.754;2022-12-18T06:59:23;102156.13;;;-7.99;79.99
22206;BME280;11272;50.104;8.754;2022-12-18T07:01:49;102161.25;;;-7.99;79.92
22206;BME280;11272;50.104;8.754;2022-12-18T07:04:14;102157.00;;;-7.98;80.26
22206;BME280;11272;50.104;8.754;2022-12-18T07:06:40;102155.34;;;-7.98;80.34
22206;BME280;11272;50.104;8.754;2022-12-18T07:09:06;102157.25;;;-7.95;80.26
22206;BME280;11272;50.104;8.754;2022-12-18T07:11:34;102160.72;;;-7.95;80.39
22206;BME280;11272;50.104;8.754;2022-12-18T07:14:00;102171.94;;;-7.94;80.03
22206;BME280;11272;50.104;8.754;2022-12-18T07:16:26;102174.66;;;-7.93;80.65
22206;BME280;11272;50.104;8.754;2022-12-18T07:18:54;102179.03;;;-7.92;80.52
22206;BME280;11272;50.104;8.754;2022-12-18T07:21:21;102182.50;;;-7.91;80.59
22206;BME280;11272;50.104;8.754;2022-12-18T07:23:47;102191.16;;;-7.91;80.35
22206;BME280;11272;50.104;8.754;2022-12-18T07:26:14;102186.09;;;-7.89;80.52
22206;BME280;11272;50.104;8.754;2022-12-18T07:28:41;102177.59;;;-7.88;80.44
22206;BME280;11272;50.104;8.754;2022-12-18T07:31:13;102169.22;;;-7.86;80.29
22206;BME280;11272;50.104;8.754;2022-12-18T07:33:40;102170.34;;;-7.82;80.21
22206;BME280;11272;50.104;8.754;2022-12-18T07:36:07;102164.66;;;-7.78;80.47
22206;BME280;11272;50.104;8.754;2022-12-18T07:38:34;102159.09;;;-7.73;80.65
22206;BME280;11272;50.104;8.754;2022-12-18T07:41:06;102162.78;;;-7.69;80.71
22206;BME280;11272;50.104;8.754;2022-12-18T07:43:33;102163.19;;;-7.64;80.69
22206;BME280;11272;50.104;8.754;2022-12-18T07:45:58;102176.44;;;-7.60;80.65
22206;BME280;11272;50.104;8.754;2022-12-18T07:48:24;102174.22;;;-7.55;80.97
22206;BME280;11272;50.104;8.754;2022-12-18T07:50:49;102172.75;;;-7.52;80.40
22206;BME280;11272;50.104;8.754;2022-12-18T07:53:15;102171.34;;;-7.48;80.36
22206;BME280;11272;50.104;8.754;2022-12-18T07:55:41;102179.31;;;-7.45;80.49
22206;BME280;11272;50.104;8.754;2022-12-18T07:58:07;102177.63;;;-7.45;80.57
22206;BME280;11272;50.104;8.754;2022-12-18T08:00:34;102174.38;;;-7.42;80.58
22206;BME280;11272;50.104;8.754;2022-12-18T08:03:00;102172.69;;;-7.42;80.43
22206;BME280;11272;50.104;8.754;2022-12-18T08:05:26;102170.94;;;-7.43;80.87
22206;BME280;11272;50.104;8.754;2022-12-18T08:07:52;102175.19;;;-7.43;80.33
22206;BME280;11272;50.104;8.754;2022-12-18T08:10:19;102174.28;;;-7.44;80.66
22206;BME280;11272;50.104;8.754;2022-12-18T08:12:45;102171.78;;;-7.42;80.77
22206;BME280;11272;50.104;8.754;2022-12-18T08:15:10;102178.13;;;-7.39;80.35
22206;BME280;11272;50.104;8.754;2022-12-18T08:17:36;102177.44;;;-7.36;80.29
22206;BME280;11272;50.104;8.754;2022-12-18T08:20:03;102173.44;;;-7.33;80.82
22206;BME280;11272;50.104;8.754;2022-12-18T08:22:29;102175.47;;;-7.29;80.90
22206;BME280;11272;50.104;8.754;2022-12-18T08:24:55;102183.69;;;-7.22;80.94
22206;BME280;11272;50.104;8.754;2022-12-18T08:27:20;102180.69;;;-7.17;80.80
22206;BME280;11272;50.104;8.754;2022-12-18T08:29:46;102193.25;;;-7.10;80.86
22206;BME280;11272;50.104;8.754;2022-12-18T08:32:12;102186.88;;;-7.03;81.19
22206;BME280;11272;50.104;8.754;2022-12-18T08:34:37;102189.38;;;-6.93;81.65
22206;BME280;11272;50.104;8.754;2022-12-18T08:37:03;102186.72;;;-6.83;81.04
22206;BME280;11272;50.104;8.754;2022-12-18T08:39:29;102180.59;;;-6.73;81.98
22206;BME280;11272;50.104;8.754;2022-12-18T08:41:55;102169.59;;;-6.59;81.61
22206;BME280;11272;50.104;8.754;2022-12-18T08:44:39;102164.69;;;-6.45;81.62
22206;BME280;11272;50.104;8.754;2022-12-18T08:47:08;102158.31;;;-6.26;81.92
22206;BME280;11272;50.104;8.754;2022-12-18T08:49:34;102155.59;;;-5.93;82.33
22206;BME280;11272;50.104;8.754;2022-12-18T08:52:01;102150.50;;;-5.19;82.46
22206;BME280;11272;50.104;8.754;2022-12-18T08:54:28;102138.53;;;-4.41;84.19
22206;BME280;11272;50.104;8.754;2022-12-18T08:56:53;102127.84;;;-3.79;84.64
22206;BME280;11272;50.104;8.754;2022-12-18T08:59:19;102126.00;;;-3.40;84.24
22206;BME280;11272;50.104;8.754;2022-12-18T09:01:45;102123.72;;;-3.20;82.90
22206;BME280;11272;50.104;8.754;2022-12-18T09:04:13;102121.34;;;-3.03;82.36
22206;BME280;11272;50.104;8.754;2022-12-18T09:06:39;102123.75;;;-2.78;82.35
22206;BME280;11272;50.104;8.754;2022-12-18T09:09:06;102126.97;;;-2.52;82.41
22206;BME280;11272;50.104;8.754;2022-12-18T09:11:33;102135.59;;;-2.08;81.92
22206;BME280;11272;50.104;8.754;2022-12-18T09:14:00;102127.22;;;-1.57;81.38
22206;BME280;11272;50.104;8.754;2022-12-18T09:16:28;102134.97;;;-1.10;80.93
22206;BME280;11272;50.104;8.754;2022-12-18T09:18:58;102132.66;;;-0.71;80.23
22206;BME280;11272;50.104;8.754;2022-12-18T09:21:33;102128.22;;;-0.56;79.32
22206;BME280;11272;50.104;8.754;2022-12-18T09:23:59;102130.31;;;-0.49;79.03
22206;BME280;11272;50.104;8.754;2022-12-18T09:26:26;102138.22;;;-0.30;78.44
22206;BME280;11272;50.104;8.754;2022-12-18T09:28:56;102143.47;;;-0.12;78.41
22206;BME280;11272;50.104;8.754;2022-12-18T09:31:23;102124.44;;;0.08;78.08
22206;BME280;11272;50.104;8.754;2022-12-18T09:33:50;102134.94;;;0.27;77.51
22206;BME280;11272;50.104;8.754;2022-12-18T09:36:17;102133.56;;;0.53;78.04
22206;BME280;11272;50.104;8.754;2022-12-18T09:38:44;102136.47;;;0.98;77.85
22206;BME280;11272;50.104;8.754;2022-12-18T09:41:32;102133.78;;;1.15;75.71
22206;BME280;11272;50.104;8.754;2022-12-18T09:44:21;102135.94;;;1.05;75.40
22206;BME280;11272;50.104;8.754;2022-12-18T09:47:12;102132.72;;;1.31;75.27
22206;BME280;11272;50.104;8.754;2022-12-18T09:49:46;102129.41;;;1.35;74.55
22206;BME280;11272;50.104;8.754;2022-12-18T09:52:17;102118.50;;;1.45;74.14
22206;BME280;11272;50.104;8.754;2022-12-18T09:54:49;102122.72;;;1.62;73.28
22206;BME280;11272;50.104;8.754;2022-12-18T09:57:22;102130.47;;;1.59;72.86
22206;BME280;11272;50.104;8.754;2022-12-18T09:59:55;102120.44;;;1.49;71.99
22206;BME280;11272;50.104;8.754;2022-12-18T10:02:26;102115.44;;;1.35;72.38
22206;BME280;11272;50.104;8.754;2022-12-18T10:08:17;102112.59;;;1.09;71.56
22206;BME280;11272;50.104;8.754;2022-12-18T10:10:46;102118.38;;;1.21;71.87
22206;BME280;11272;50.104;8.754;2022-12-18T10:13:39;102123.28;;;0.95;70.70
22206;BME280;11272;50.104;8.754;2022-12-18T10:16:29;102128.16;;;0.87;70.53
22206;BME280;11272;50.104;8.754;2022-12-18T10:22:10;102139.44;;;1.45;69.96
22206;BME280;11272;50.104;8.754;2022-12-18T10:24:42;102136.78;;;1.44;68.88
22206;BME280;11272;50.104;8.754;2022-12-18T10:27:14;102116.47;;;1.59;69.83
22206;BME280;11272;50.104;8.754;2022-12-18T10:29:44;102106.50;;;1.71;68.82
22206;BME280;11272;50.104;8.754;2022-12-18T10:32:22;102102.94;;;1.69;68.51
22206;BME280;11272;50.104;8.754;2022-12-18T10:34:50;102092.97;;;1.81;68.38
22206;BME280;11272;50.104;8.754;2022-12-18T10:37:21;102099.25;;;1.64;66.93
22206;BME280;11272;50.104;8.754;2022-12-18T10:40:11;102104.03;;;1.53;65.62
22206;BME280;11272;50.104;8.754;2022-12-18T10:42:37;102111.13;;;0.97;65.16
22206;BME280;11272;50.104;8.754;2022-12-18T10:45:13;102108.09;;;0.49;65.53
22206;BME280;11272;50.104;8.754;2022-12-18T10:47:44;102110.78;;;0.14;64.76
22206;BME280;11272;50.104;8.754;2022-12-18T10:50:27;102115.41;;;0.02;65.26
22206;BME280;11272;50.104;8.754;2022-12-18T10:53:03;102120.41;;;-0.21;64.38
22206;BME280;11272;50.104;8.754;2022-12-18T10:55:35;102118.03;;;-0.34;64.79
22206;BME280;11272;50.104;8.754;2022-12-18T10:58:27;102129.72;;;-0.26;64.36
22206;BME280;11272;50.104;8.754;2022-12-18T11:01:08;102123.97;;;-0.36;64.41
22206;BME280;11272;50.104;8.754;2022-12-18T11:03:36;102116.81;;;-0.74;64.50
22206;BME280;11272;50.104;8.754;2022-12-18T11:06:13;102111.00;;;-0.87;64.20
22206;BME280;11272;50.104;8.754;2022-12-18T11:08:41;102118.88;;;-0.85;64.61
22206;BME280;11272;50.104;8.754;2022-12-18T11:11:34;102121.50;;;-0.85;64.69
22206;BME280;11272;50.104;8.754;2022-12-18T11:14:03;102122.84;;;-0.59;64.59
22206;BME280;11272;50.104;8.754;2022-12-18T11:16:43;102113.94;;;-0.29;63.73
22206;BME280;11272;50.104;8.754;2022-12-18T11:19:16;102108.25;;;-0.20;63.41
22206;BME280;11272;50.104;8.754;2022-12-18T11:21:45;102091.69;;;-0.03;64.08
22206;BME280;11272;50.104;8.754;2022-12-18T11:24:23;102109.94;;;0.32;64.04
22206;BME280;11272;50.104;8.754;2022-12-18T11:26:50;102100.84;;;0.24;63.19
22206;BME280;11272;50.104;8.754;2022-12-18T11:29:24;102107.31;;;0.32;63.84
22206;BME280;11272;50.104;8.754;2022-12-18T11:34:45;102106.16;;;0.26;62.74
22206;BME280;11272;50.104;8.754;2022-12-18T11:37:13;102101.38;;;0.17;62.82
22206;BME280;11272;50.104;8.754;2022-12-18T11:39:42;102097.44;;;0.08;61.50
22206;BME280;11272;50.104;8.754;2022-12-18T11:42:17;102089.91;;;-0.04;62.30
22206;BME280;11272;50.104;8.754;2022-12-18T11:47:45;102085.38;;;-0.26;62.11
22206;BME280;11272;50.104;8.754;2022-12-18T11:50:23;102079.63;;;-0.19;62.20
22206;BME280;11272;50.104;8.754;2022-12-18T11:52:50;102078.44;;;-0.08;62.33
22206;BME280;11272;50.104;8.754;2022-12-18T11:55:35;102082.16;;;-0.03;62.26
22206;BME280;11272;50.104;8.754;2022-12-18T11:58:27;102084.75;;;0.15;61.96
22206;BME280;11272;50.104;8.754;2022-12-18T12:01:24;102072.63;;;-0.02;61.79
22206;BME280;11272;50.104;8.754;2022-12-18T12:04:19;102069.84;;;-0.05;61.85
22206;BME280;11272;50.104;8.754;2022-12-18T12:07:00;102064.34;;;-0.11;61.80
22206;BME280;11272;50.104;8.754;2022-12-18T12:12:29;102081.84;;;-0.09;62.16
22206;BME280;11272;50.104;8.754;2022-12-18T12:23:33;102077.91;;;-0.36;62.90
22206;BME280;11272;50.104;8.754;2022-12-18T12:26:14;102084.25;;;-0.31;63.13
22206;BME280;11272;50.104;8.754;2022-12-18T12:28:55;102073.22;;;-0.43;62.86
22206;BME280;11272;50.104;8.754;2022-12-18T12:34:23;102073.44;;;-0.90;63.12
22206;BME280;11272;50.104;8.754;2022-12-18T12:37:08;102086.91;;;-0.99;63.44
22206;BME280;11272;50.104;8.754;2022-12-18T12:39:39;102093.03;;;-1.14;63.21
22206;BME280;11272;50.104;8.754;2022-12-18T12:42:18;102081.88;;;-1.28;63.52
22206;BME280;11272;50.104;8.754;2022-12-18T12:45:06;102057.59;;;-1.27;63.79
22206;BME280;11272;50.104;8.754;2022-12-18T12:47:43;102052.50;;;-1.25;63.69
22206;BME280;11272;50.104;8.754;2022-12-18T12:50:16;102051.44;;;-1.29;63.83
22206;BME280;11272;50.104;8.754;2022-12-18T12:52:51;102054.09;;;-1.28;63.86
22206;BME280;11272;50.104;8.754;2022-12-18T12:55:21;102046.13;;;-1.31;63.88
22206;BME280;11272;50.104;8.754;2022-12-18T13:04:12;102050.22;;;-1.68;65.17
22206;BME280;11272;50.104;8.754;2022-12-18T13:10:23;102042.66;;;-1.63;64.86
22206;BME280;11272;50.104;8.754;2022-12-18T13:12:58;102047.69;;;-1.66;65.33
22206;BME280;11272;50.104;8.754;2022-12-18T13:15:36;102053.38;;;-1.74;65.34
22206;BME280;11272;50.104;8.754;2022-12-18T13:34:22;102031.50;;;-1.61;66.03
22206;BME280;11272;50.104;8.754;2022-12-18T13:36:51;102035.63;;;-1.64;65.86
22206;BME280;11272;50.104;8.754;2022-12-18T13:39:31;102037.28;;;-1.66;66.17
22206;BME280;11272;50.104;8.754;2022-12-18T13:44:35;102030.28;;;-1.67;66.34
22206;BME280;11272;50.104;8.754;2022-12-18T13:47:03;102032.88;;;-1.67;66.32
22206;BME280;11272;50.104;8.754;2022-12-18T13:49:41;102025.97;;;-1.67;66.68
22206;BME280;11272;50.104;8.754;2022-12-18T13:52:21;102023.13;;;-1.72;66.62
22206;BME280;11272;50.104;8.754;2022-12-18T13:54:52;102006.75;;;-1.69;66.63
22206;BME280;11272;50.104;8.754;2022-12-18T13:57:30;102000.66;;;-1.70;66.82
22206;BME280;11272;50.104;8.754;2022-12-18T13:59:57;101997.09;;;-1.72;66.87
22206;BME280;11272;50.104;8.754;2022-12-18T14:02:29;102003.19;;;-1.71;66.97
22206;BME280;11272;50.104;8.754;2022-12-18T14:04:58;101996.25;;;-1.71;66.77
22206;BME280;11272;50.104;8.754;2022-12-18T14:07:26;101990.19;;;-1.71;66.99
22206;BME280;11272;50.104;8.754;2022-12-18T14:09:59;101988.28;;;-1.74;67.00
22206;BME280;11272;50.104;8.754;2022-12-18T14:12:30;101994.41;;;-1.73;66.71
22206;BME280;11272;50.104;8.754;2022-12-18T14:17:57;101995.13;;;-1.76;67.24
22206;BME280;11272;50.104;8.754;2022-12-18T14:20:25;101992.38;;;-1.79;67.36
22206;BME280;11272;50.104;8.754;2022-12-18T14:22:51;101989.66;;;-1.80;67.22
22206;BME280;11272;50.104;8.754;2022-12-18T14:25:23;101995.69;;;-1.81;67.34